createdAt,value
2018-09-23T00:00:12.351Z,88.16
2018-09-23T00:02:40.893Z,87.49
2018-09-23T00:05:09.429Z,87.32
2018-09-23T00:07:37.967Z,87.05
2018-09-23T00:10:06.730Z,86.82
2018-09-23T00:12:35.283Z,87.97
2018-09-23T00:15:03.863Z,86.05
2018-09-23T00:17:32.442Z,87.09
2018-09-23T00:20:01.006Z,87.20
2018-09-23T00:22:29.565Z,86.44
2018-09-23T00:24:58.110Z,87.00
2018-09-23T00:27:26.673Z,86.90
2018-09-23T00:29:55.206Z,87.84
2018-09-23T00:32:25.124Z,87.20
2018-09-23T00:34:53.853Z,87.94
2018-09-23T00:37:23.236Z,87.90
2018-09-23T00:39:51.782Z,87.64
2018-09-23T00:42:20.658Z,87.72
2018-09-23T00:44:49.174Z,87.73
2018-09-23T00:47:17.729Z,88.18
2018-09-23T00:49:46.254Z,89.10
2018-09-23T00:52:14.809Z,88.91
2018-09-23T00:54:43.342Z,89.13
2018-09-23T00:57:11.901Z,89.86
2018-09-23T00:59:40.437Z,90.20
2018-09-23T01:02:09.011Z,89.99
2018-09-23T01:04:37.546Z,90.51
2018-09-23T01:07:06.479Z,90.46
2018-09-23T01:09:35.034Z,90.65
2018-09-23T01:12:03.666Z,90.21
2018-09-23T01:14:32.225Z,91.01
2018-09-23T01:17:00.753Z,90.55
2018-09-23T01:19:29.277Z,91.04
2018-09-23T01:21:57.824Z,91.16
2018-09-23T01:24:26.353Z,90.82
2018-09-23T01:26:54.962Z,90.84
2018-09-23T01:29:23.501Z,91.48
2018-09-23T01:31:52.057Z,91.97
2018-09-23T01:34:20.603Z,91.78
2018-09-23T01:36:49.163Z,91.82
2018-09-23T01:39:18.288Z,91.86
2018-09-23T01:41:46.798Z,91.54
2018-09-23T01:44:15.430Z,91.52
2018-09-23T01:46:43.954Z,91.04
2018-09-23T01:49:12.528Z,91.03
2018-09-23T01:51:41.045Z,91.31
2018-09-23T01:54:09.638Z,91.64
2018-09-23T01:56:38.169Z,91.27
2018-09-23T01:59:07.166Z,90.87
2018-09-23T02:01:35.710Z,91.47
2018-09-23T02:04:04.305Z,91.54
2018-09-23T02:06:32.838Z,90.64
2018-09-23T02:09:01.398Z,91.17
2018-09-23T02:11:29.942Z,91.20
2018-09-23T02:13:58.487Z,91.05
2018-09-23T02:16:27.027Z,91.05
2018-09-23T02:18:55.582Z,90.68
2018-09-23T02:21:24.129Z,91.13
2018-09-23T02:23:52.709Z,91.40
2018-09-23T02:26:21.287Z,90.90
2018-09-23T02:28:49.963Z,91.15
2018-09-23T02:31:18.513Z,91.49
2018-09-23T02:33:47.151Z,91.76
2018-09-23T02:36:15.712Z,92.10
2018-09-23T02:38:44.258Z,92.21
2018-09-23T02:41:12.808Z,91.56
2018-09-23T02:43:41.408Z,91.34
2018-09-23T02:46:10.897Z,91.31
2018-09-23T02:48:39.463Z,91.58
2018-09-23T02:51:08.035Z,91.82
2018-09-23T02:53:37.002Z,91.61
2018-09-23T02:56:05.818Z,91.58
2018-09-23T02:58:34.385Z,91.72
2018-09-23T03:01:02.934Z,91.66
2018-09-23T03:03:31.474Z,92.16
2018-09-23T03:06:00.098Z,91.98
2018-09-23T03:08:28.637Z,92.72
2018-09-23T03:10:57.198Z,91.93
2018-09-23T03:13:25.737Z,91.86
2018-09-23T03:15:54.281Z,91.62
2018-09-23T03:18:22.863Z,91.93
2018-09-23T03:20:51.438Z,92.19
2018-09-23T03:23:19.979Z,91.96
2018-09-23T03:25:48.550Z,91.78
2018-09-23T03:28:17.093Z,92.24
2018-09-23T03:30:45.655Z,92.80
2018-09-23T03:33:14.194Z,93.00
2018-09-23T03:35:43.089Z,92.90
2018-09-23T03:38:11.636Z,91.85
2018-09-23T03:40:40.214Z,92.01
2018-09-23T03:43:08.822Z,92.30
2018-09-23T03:45:37.421Z,92.75
2018-09-23T03:48:05.979Z,92.80
2018-09-23T03:50:34.631Z,92.70
2018-09-23T03:53:03.154Z,93.20
2018-09-23T03:55:31.741Z,93.08
2018-09-23T03:58:00.314Z,93.09
2018-09-23T04:00:28.846Z,93.54
2018-09-23T04:02:57.398Z,93.19
2018-09-23T04:05:26.004Z,93.39
2018-09-23T04:07:54.525Z,93.80
2018-09-23T04:10:23.150Z,93.20
2018-09-23T04:12:51.707Z,92.69
2018-09-23T04:15:20.300Z,92.98
2018-09-23T04:17:48.829Z,93.12
2018-09-23T04:20:17.421Z,93.82
2018-09-23T04:22:49.755Z,93.87
2018-09-23T04:25:19.381Z,93.49
2018-09-23T04:27:48.151Z,93.21
2018-09-23T04:30:17.202Z,93.24
2018-09-23T04:32:45.829Z,93.19
2018-09-23T04:35:15.549Z,93.35
2018-09-23T04:37:44.094Z,93.84
2018-09-23T04:40:12.877Z,94.09
2018-09-23T04:42:41.451Z,94.32
2018-09-23T04:45:09.554Z,93.92
2018-09-23T04:47:38.105Z,93.57
2018-09-23T04:50:06.690Z,94.39
2018-09-23T04:52:35.246Z,94.03
2018-09-23T04:55:03.810Z,93.95
2018-09-23T04:57:32.401Z,94.40
2018-09-23T05:00:00.954Z,94.17
2018-09-23T05:02:29.522Z,94.22
2018-09-23T05:04:58.046Z,93.84
2018-09-23T05:07:26.646Z,94.44
2018-09-23T05:09:55.182Z,93.61
2018-09-23T05:12:23.778Z,94.00
2018-09-23T05:14:52.318Z,94.25
2018-09-23T05:17:20.907Z,94.30
2018-09-23T05:19:49.571Z,94.08
2018-09-23T05:22:18.130Z,93.75
2018-09-23T05:24:46.650Z,93.57
2018-09-23T05:27:15.233Z,93.30
2018-09-23T05:29:43.764Z,93.64
2018-09-23T05:32:12.325Z,93.94
2018-09-23T05:34:40.871Z,93.91
2018-09-23T05:37:09.466Z,93.84
2018-09-23T05:39:37.985Z,94.08
2018-09-23T05:42:06.665Z,93.86
2018-09-23T05:44:35.690Z,93.83
2018-09-23T05:47:04.275Z,92.43
2018-09-23T05:49:32.834Z,92.95
2018-09-23T05:52:01.459Z,92.82
2018-09-23T05:54:29.990Z,93.23
2018-09-23T05:56:58.561Z,92.97
2018-09-23T05:59:27.138Z,93.39
2018-09-23T06:01:55.691Z,93.58
2018-09-23T06:04:24.757Z,93.36
2018-09-23T06:06:53.305Z,93.53
2018-09-23T06:09:21.901Z,93.60
2018-09-23T06:11:50.439Z,93.66
2018-09-23T06:14:19.011Z,92.64
2018-09-23T06:16:47.548Z,92.97
2018-09-23T06:19:16.626Z,93.57
2018-09-23T06:21:45.164Z,93.50
2018-09-23T06:24:13.711Z,94.10
2018-09-23T06:26:42.249Z,93.70
2018-09-23T06:29:10.841Z,93.58
2018-09-23T06:31:39.410Z,93.43
2018-09-23T06:34:07.987Z,92.47
2018-09-23T06:36:36.508Z,92.19
2018-09-23T06:39:06.963Z,92.04
2018-09-23T06:41:35.506Z,92.24
2018-09-23T06:44:04.118Z,91.90
2018-09-23T06:46:32.689Z,92.72
2018-09-23T06:49:01.251Z,93.11
2018-09-23T06:51:29.824Z,93.02
2018-09-23T06:53:58.403Z,93.06
2018-09-23T06:56:26.946Z,92.81
2018-09-23T06:58:55.507Z,92.55
2018-09-23T07:01:24.062Z,91.63
2018-09-23T07:03:52.646Z,91.19
2018-09-23T07:06:21.182Z,90.87
2018-09-23T07:08:49.727Z,90.65
2018-09-23T07:11:18.257Z,90.53
2018-09-23T07:13:46.807Z,90.26
2018-09-23T07:16:15.341Z,90.24
2018-09-23T07:18:43.906Z,90.26
2018-09-23T07:21:12.452Z,88.90
2018-09-23T07:23:41.067Z,89.99
2018-09-23T07:26:09.573Z,90.54
2018-09-23T07:28:38.099Z,91.20
2018-09-23T07:31:07.166Z,90.56
2018-09-23T07:33:35.701Z,89.66
2018-09-23T07:36:04.270Z,89.27
2018-09-23T07:38:32.805Z,87.78
2018-09-23T07:41:01.390Z,88.70
2018-09-23T07:43:29.962Z,87.97
2018-09-23T07:45:58.542Z,87.09
2018-09-23T07:48:27.076Z,88.56
2018-09-23T07:50:55.625Z,89.39
2018-09-23T07:53:24.158Z,89.70
2018-09-23T07:55:52.722Z,90.50
2018-09-23T07:58:21.243Z,90.62
2018-09-23T08:00:49.800Z,89.85
2018-09-23T08:03:18.387Z,89.10
2018-09-23T08:05:46.950Z,88.60
2018-09-23T08:08:15.529Z,88.51
2018-09-23T08:10:44.120Z,87.04
2018-09-23T08:13:12.761Z,87.17
2018-09-23T08:15:41.374Z,88.79
2018-09-23T08:18:09.958Z,89.45
2018-09-23T08:20:38.605Z,89.56
2018-09-23T08:23:07.180Z,91.31
2018-09-23T08:25:35.821Z,91.74
2018-09-23T08:28:04.310Z,92.03
2018-09-23T08:30:32.886Z,91.57
2018-09-23T08:33:01.448Z,90.89
2018-09-23T08:35:30.211Z,90.80
2018-09-23T08:37:58.808Z,92.15
2018-09-23T08:40:27.314Z,92.16
2018-09-23T08:42:55.923Z,92.45
2018-09-23T08:45:24.437Z,91.84
2018-09-23T08:47:53.739Z,92.08
2018-09-23T08:50:22.390Z,93.34
2018-09-23T08:52:51.026Z,93.28
2018-09-23T08:55:19.573Z,91.97
2018-09-23T08:57:48.228Z,91.97
2018-09-23T09:00:16.714Z,92.60
2018-09-23T09:02:45.270Z,92.59
2018-09-23T09:05:13.817Z,91.35
2018-09-23T09:07:42.391Z,90.07
2018-09-23T09:10:10.917Z,89.76
2018-09-23T09:12:39.481Z,89.32
2018-09-23T09:15:08.042Z,89.76
2018-09-23T09:17:36.638Z,90.48
2018-09-23T09:20:05.418Z,89.94
2018-09-23T09:22:33.989Z,90.13
2018-09-23T09:25:02.501Z,89.54
2018-09-23T09:27:31.064Z,90.59
2018-09-23T09:29:59.594Z,91.50
2018-09-23T09:32:28.160Z,91.86
2018-09-23T09:34:56.699Z,93.03
2018-09-23T09:37:25.269Z,91.50
2018-09-23T09:39:53.803Z,91.14
2018-09-23T09:42:22.382Z,90.30
2018-09-23T09:44:50.934Z,91.93
2018-09-23T09:47:19.502Z,92.19
2018-09-23T09:49:48.042Z,92.63
2018-09-23T09:52:16.583Z,92.07
2018-09-23T09:54:45.192Z,91.52
2018-09-23T09:57:13.751Z,91.77
2018-09-23T09:59:42.334Z,92.50
2018-09-23T10:02:11.005Z,93.35
2018-09-23T10:04:39.571Z,92.67
2018-09-23T10:07:08.169Z,94.19
2018-09-23T10:09:36.722Z,93.88
2018-09-23T10:12:05.296Z,93.07
2018-09-23T10:14:33.892Z,92.72
2018-09-23T10:17:02.503Z,92.86
2018-09-23T10:19:31.115Z,93.36
2018-09-23T10:21:59.738Z,93.06
2018-09-23T10:24:28.331Z,93.21
2018-09-23T10:26:57.002Z,93.11
2018-09-23T10:29:25.560Z,92.78
2018-09-23T10:31:54.380Z,92.34
2018-09-23T10:34:22.963Z,92.30
2018-09-23T10:36:51.492Z,91.76
2018-09-23T10:39:20.105Z,91.82
2018-09-23T10:41:48.639Z,93.26
2018-09-23T10:44:17.230Z,92.46
2018-09-23T10:46:45.783Z,91.94
2018-09-23T10:49:14.374Z,90.47
2018-09-23T10:51:42.974Z,89.70
2018-09-23T10:54:11.538Z,89.48
2018-09-23T10:56:40.565Z,89.20
2018-09-23T10:59:09.175Z,88.24
2018-09-23T11:01:37.720Z,87.16
2018-09-23T11:04:06.338Z,87.61
2018-09-23T11:06:34.905Z,87.16
2018-09-23T11:09:03.579Z,86.19
2018-09-23T11:11:32.483Z,85.14
2018-09-23T11:14:01.090Z,87.24
2018-09-23T11:16:29.702Z,86.29
2018-09-23T11:18:58.308Z,87.17
2018-09-23T11:21:26.850Z,87.45
2018-09-23T11:23:55.510Z,86.27
2018-09-23T11:26:24.095Z,84.41
2018-09-23T11:28:52.646Z,81.53
2018-09-23T11:31:21.186Z,80.85
2018-09-23T11:33:49.731Z,80.84
2018-09-23T11:36:18.270Z,83.47
2018-09-23T11:38:46.850Z,83.92
2018-09-23T11:41:15.426Z,82.55
2018-09-23T11:43:48.815Z,82.84
2018-09-23T11:46:17.561Z,82.98
2018-09-23T11:48:46.169Z,84.01
2018-09-23T11:51:14.782Z,85.47
2018-09-23T11:53:48.383Z,87.24
2018-09-23T11:56:17.042Z,87.98
2018-09-23T11:58:45.627Z,88.27
2018-09-23T12:01:14.206Z,85.89
2018-09-23T12:03:42.763Z,87.11
2018-09-23T12:06:11.334Z,88.49
2018-09-23T12:08:39.958Z,87.14
2018-09-23T12:11:08.546Z,88.68
2018-09-23T12:13:37.085Z,88.06
2018-09-23T12:16:05.646Z,88.46
2018-09-23T12:18:34.619Z,87.97
2018-09-23T12:21:03.185Z,89.21
2018-09-23T12:23:31.731Z,88.21
2018-09-23T12:26:00.444Z,86.20
2018-09-23T12:28:28.899Z,83.73
2018-09-23T12:30:58.214Z,83.94
2018-09-23T12:33:26.734Z,82.75
2018-09-23T12:35:59.414Z,83.10
2018-09-23T12:38:35.499Z,83.86
2018-09-23T12:41:04.215Z,82.50
2018-09-23T12:43:32.743Z,81.26
2018-09-23T12:46:01.359Z,82.51
2018-09-23T12:48:31.305Z,82.90
2018-09-23T12:50:59.890Z,83.78
2018-09-23T12:53:28.443Z,83.00
2018-09-23T12:55:57.006Z,81.48
2018-09-23T12:58:25.622Z,70.35
2018-09-23T13:00:54.237Z,71.17
2018-09-23T13:03:22.850Z,73.75
2018-09-23T13:05:51.389Z,77.11
2018-09-23T13:08:20.001Z,78.56
2018-09-23T13:10:48.567Z,79.46
2018-09-23T13:13:17.107Z,80.90
2018-09-23T13:15:45.723Z,80.68
2018-09-23T13:18:14.509Z,81.22
2018-09-23T13:20:43.003Z,82.24
2018-09-23T13:23:11.546Z,82.40
2018-09-23T13:25:40.088Z,85.07
2018-09-23T13:28:08.609Z,86.65
2018-09-23T13:30:37.153Z,88.93
2018-09-23T13:33:06.254Z,89.08
2018-09-23T13:35:34.899Z,89.67
2018-09-23T13:38:03.434Z,89.98
2018-09-23T13:40:32.045Z,91.24
2018-09-23T13:43:00.581Z,83.69
2018-09-23T13:45:29.169Z,88.13
2018-09-23T13:47:57.815Z,91.83
2018-09-23T13:50:26.386Z,93.44
2018-09-23T13:52:54.987Z,94.35
2018-09-23T13:55:23.595Z,93.89
2018-09-23T13:57:52.174Z,94.13
2018-09-23T14:00:21.307Z,95.34
2018-09-23T14:02:49.855Z,94.49
2018-09-23T14:05:18.502Z,93.93
2018-09-23T14:07:47.077Z,94.38
2018-09-23T14:10:15.678Z,94.13
2018-09-23T14:12:44.237Z,94.49
2018-09-23T14:15:12.854Z,94.17
2018-09-23T14:17:41.431Z,94.33
2018-09-23T14:20:10.123Z,93.92
2018-09-23T14:22:38.657Z,91.78
2018-09-23T14:25:07.316Z,90.38
2018-09-23T14:27:35.880Z,90.22
2018-09-23T14:30:04.618Z,89.30
2018-09-23T14:32:33.174Z,89.56
2018-09-23T14:35:01.711Z,89.83
2018-09-23T14:37:30.723Z,91.51
2018-09-23T14:39:59.251Z,91.50
2018-09-23T14:42:27.914Z,92.40
2018-09-23T14:44:56.518Z,91.87
2018-09-23T14:47:25.250Z,92.26
2018-09-23T14:49:53.782Z,92.33
2018-09-23T14:52:22.398Z,92.56
2018-09-23T14:54:51.046Z,91.92
2018-09-23T14:57:19.594Z,91.87
2018-09-23T14:59:54.191Z,92.59
2018-09-23T15:02:18.062Z,92.92
2018-09-23T15:04:46.565Z,93.30
2018-09-23T15:07:15.238Z,93.48
2018-09-23T15:09:43.769Z,93.09
2018-09-23T15:12:12.410Z,93.26
2018-09-23T15:14:40.941Z,93.39
2018-09-23T15:17:09.558Z,93.00
2018-09-23T15:19:38.111Z,92.92
2018-09-23T15:22:06.851Z,92.87
2018-09-23T15:24:35.406Z,93.10
2018-09-23T15:27:03.982Z,93.17
2018-09-23T15:29:32.534Z,93.49
2018-09-23T15:32:01.124Z,93.11
2018-09-23T15:34:29.678Z,93.86
2018-09-23T15:36:58.290Z,93.59
2018-09-23T15:39:26.861Z,93.89
2018-09-23T15:41:56.521Z,93.52
2018-09-23T15:44:25.366Z,93.87
2018-09-23T15:46:53.977Z,93.72
2018-09-23T15:49:22.538Z,93.88
2018-09-23T15:51:51.151Z,93.66
2018-09-23T15:54:19.680Z,94.22
2018-09-23T15:56:48.314Z,93.89
2018-09-23T15:59:17.302Z,94.02
2018-09-23T16:01:45.910Z,93.64
2018-09-23T16:04:14.462Z,93.02
2018-09-23T16:06:43.255Z,92.87
2018-09-23T16:09:11.871Z,93.31
2018-09-23T16:11:40.456Z,93.21
2018-09-23T16:14:09.011Z,93.25
2018-09-23T16:16:37.860Z,93.00
2018-09-23T16:19:06.827Z,92.63
2018-09-23T16:21:35.417Z,92.74
2018-09-23T16:24:04.140Z,93.03
2018-09-23T16:26:32.987Z,92.49
2018-09-23T16:29:01.789Z,94.02
2018-09-23T16:31:30.386Z,93.34
2018-09-23T16:33:58.961Z,92.94
2018-09-23T16:36:27.610Z,93.36
2018-09-23T16:38:56.193Z,93.02
2018-09-23T16:41:24.818Z,93.49
2018-09-23T16:43:53.421Z,93.20
2018-09-23T16:46:21.983Z,92.93
2018-09-23T16:48:50.546Z,92.98
2018-09-23T16:51:19.145Z,92.58
2018-09-23T16:53:47.750Z,91.43
2018-09-23T16:56:16.326Z,92.37
2018-09-23T16:58:44.962Z,92.18
2018-09-23T17:01:13.536Z,92.58
2018-09-23T17:03:42.292Z,92.73
2018-09-23T17:06:10.890Z,93.10
2018-09-23T17:08:39.505Z,92.64
2018-09-23T17:11:08.042Z,93.28
2018-09-23T17:13:36.607Z,94.16
2018-09-23T17:16:05.151Z,93.58
2018-09-23T17:18:33.697Z,94.05
2018-09-23T17:21:02.217Z,93.19
2018-09-23T17:23:30.770Z,93.23
2018-09-23T17:25:59.298Z,93.68
2018-09-23T17:28:28.016Z,93.05
2018-09-23T17:30:56.610Z,94.01
2018-09-23T17:33:25.177Z,93.66
2018-09-23T17:35:53.749Z,93.93
2018-09-23T17:38:23.362Z,93.34
2018-09-23T17:40:51.984Z,94.44
2018-09-23T17:43:20.486Z,94.68
2018-09-23T17:45:54.198Z,94.94
2018-09-23T17:48:22.782Z,94.62
2018-09-23T17:50:51.401Z,94.67
2018-09-23T17:53:20.010Z,93.94
2018-09-23T17:55:48.551Z,92.75
2018-09-23T17:58:17.102Z,92.55
2018-09-23T18:00:45.630Z,93.28
2018-09-23T18:03:14.842Z,93.93
2018-09-23T18:05:43.767Z,93.54
2018-09-23T18:08:12.354Z,93.04
2018-09-23T18:10:40.903Z,92.97
2018-09-23T18:13:09.482Z,93.14
2018-09-23T18:15:38.055Z,93.05
2018-09-23T18:18:06.673Z,93.19
2018-09-23T18:20:35.235Z,93.41
2018-09-23T18:23:03.830Z,93.69
2018-09-23T18:25:32.359Z,93.49
2018-09-23T18:28:00.910Z,93.63
2018-09-23T18:30:29.478Z,92.86
2018-09-23T18:32:58.583Z,92.89
2018-09-23T18:35:27.107Z,91.99
2018-09-23T18:37:55.689Z,91.54
2018-09-23T18:40:24.275Z,91.62
2018-09-23T18:42:55.317Z,92.40
2018-09-23T18:45:23.868Z,91.67
2018-09-23T18:47:52.432Z,90.19
2018-09-23T18:50:30.940Z,90.39
2018-09-23T18:53:08.929Z,90.88
2018-09-23T18:55:43.793Z,89.32
2018-09-23T18:58:13.084Z,90.72
2018-09-23T19:00:45.297Z,90.92
2018-09-23T19:03:15.089Z,90.91
2018-09-23T19:05:52.189Z,90.50
2018-09-23T19:08:21.758Z,90.55
2018-09-23T19:10:50.979Z,90.32
2018-09-23T19:13:25.106Z,90.51
2018-09-23T19:16:01.298Z,91.83
2018-09-23T19:18:31.588Z,91.99
2018-09-23T19:21:00.221Z,90.44
2018-09-23T19:23:32.348Z,91.35
2018-09-23T19:26:11.957Z,90.91
2018-09-23T19:28:42.787Z,90.69
2018-09-23T19:31:12.771Z,89.88
2018-09-23T19:33:42.089Z,89.73
2018-09-23T19:36:10.686Z,90.21
2018-09-23T19:38:41.021Z,90.50
2018-09-23T19:41:10.069Z,91.12
2018-09-23T19:43:52.390Z,90.82
2018-09-23T19:46:23.837Z,90.52
2018-09-23T19:48:54.087Z,91.07
2018-09-23T19:51:24.559Z,89.82
2018-09-23T19:53:54.619Z,90.83
2018-09-23T19:56:24.402Z,91.27
2018-09-23T19:58:53.682Z,90.68
2018-09-23T20:01:25.715Z,90.98
2018-09-23T20:03:57.424Z,90.33
2018-09-23T20:06:30.726Z,90.26
2018-09-23T20:09:06.298Z,90.83
2018-09-23T20:11:37.019Z,89.86
2018-09-23T20:14:10.952Z,91.14
2018-09-23T20:16:41.831Z,91.44
2018-09-23T20:19:14.792Z,90.61
2018-09-23T20:21:45.455Z,90.14
2018-09-23T20:24:17.273Z,90.66
2018-09-23T20:26:54.170Z,91.28
2018-09-23T20:29:29.175Z,90.44
2018-09-23T20:32:03.341Z,90.84
2018-09-23T20:34:43.598Z,91.98
2018-09-23T20:37:16.373Z,91.32
2018-09-23T20:39:50.192Z,91.83
2018-09-23T20:42:21.431Z,92.01
2018-09-23T20:44:51.801Z,92.48
2018-09-23T20:47:25.019Z,91.91
2018-09-23T20:49:54.221Z,91.93
2018-09-23T20:52:22.814Z,92.08
2018-09-23T20:54:51.459Z,90.94
2018-09-23T20:57:20.031Z,91.10
2018-09-23T20:59:48.661Z,91.29
2018-09-23T21:02:17.390Z,91.37
2018-09-23T21:04:46.267Z,91.52
2018-09-23T21:07:14.890Z,91.39
2018-09-23T21:09:43.644Z,91.38
2018-09-23T21:12:22.925Z,91.73
2018-09-23T21:14:57.022Z,91.66
2018-09-23T21:17:31.302Z,91.39
2018-09-23T21:20:03.132Z,91.37
2018-09-23T21:22:31.766Z,90.61
2018-09-23T21:25:00.394Z,90.55
2018-09-23T21:27:28.955Z,91.95
2018-09-23T21:29:57.608Z,91.25
2018-09-23T21:32:26.178Z,90.78
2018-09-23T21:34:54.774Z,90.93
2018-09-23T21:37:23.312Z,91.09
2018-09-23T21:39:51.913Z,91.83
2018-09-23T21:42:20.495Z,91.16
2018-09-23T21:44:49.139Z,91.81
2018-09-23T21:47:17.739Z,91.54
2018-09-23T21:49:46.321Z,91.52
2018-09-23T21:52:14.911Z,92.08
2018-09-23T21:54:43.642Z,91.47
2018-09-23T21:57:12.198Z,91.96
2018-09-23T21:59:40.811Z,91.78
2018-09-23T22:02:09.597Z,91.37
2018-09-23T22:04:38.150Z,91.59
2018-09-23T22:07:06.774Z,92.07
2018-09-23T22:09:36.333Z,91.89
2018-09-23T22:12:05.465Z,92.34
2018-09-23T22:14:34.106Z,91.98
2018-09-23T22:17:03.568Z,92.04
2018-09-23T22:19:32.162Z,91.84
2018-09-23T22:22:00.773Z,91.09
2018-09-23T22:24:29.402Z,92.19
2018-09-23T22:26:58.138Z,91.54
2018-09-23T22:29:26.722Z,91.23
2018-09-23T22:31:55.370Z,92.25
2018-09-23T22:34:24.457Z,91.65
2018-09-23T22:36:53.053Z,91.79
2018-09-23T22:39:21.750Z,91.61
2018-09-23T22:41:50.772Z,91.37
2018-09-23T22:44:19.341Z,92.21
2018-09-23T22:46:47.940Z,92.42
2018-09-23T22:49:16.515Z,92.77
2018-09-23T22:51:45.128Z,93.23
2018-09-23T22:54:13.709Z,92.57
2018-09-23T22:56:42.362Z,92.81
2018-09-23T22:59:11.073Z,91.96
2018-09-23T23:01:39.967Z,92.08
2018-09-23T23:04:08.617Z,92.16
2018-09-23T23:06:37.206Z,92.54
2018-09-23T23:09:07.869Z,92.11
2018-09-23T23:11:36.493Z,92.41
2018-09-23T23:14:05.110Z,92.92
2018-09-23T23:16:33.690Z,92.40
2018-09-23T23:19:02.270Z,92.16
2018-09-23T23:21:30.875Z,92.68
2018-09-23T23:23:59.475Z,92.35
2018-09-23T23:26:28.025Z,92.25
2018-09-23T23:28:56.668Z,92.27
2018-09-23T23:31:25.245Z,92.10
2018-09-23T23:33:53.797Z,91.29
2018-09-23T23:36:22.350Z,92.62
2018-09-23T23:38:50.918Z,92.22
2018-09-23T23:41:19.534Z,92.02
2018-09-23T23:43:48.150Z,92.45
2018-09-23T23:46:16.729Z,92.75
2018-09-23T23:48:45.282Z,92.50
2018-09-23T23:51:13.887Z,92.07
2018-09-23T23:53:42.417Z,92.38
2018-09-23T23:56:11.086Z,92.59
2018-09-23T23:58:39.831Z,92.48
